createdAt,value
2018-12-01T00:01:27.123Z,84.96
2018-12-01T00:04:00.047Z,85.14
2018-12-01T00:06:32.276Z,85.25
2018-12-01T00:09:04.699Z,85.33
2018-12-01T00:11:36.490Z,85.30
2018-12-01T00:14:08.167Z,85.27
2018-12-01T00:16:39.811Z,85.24
2018-12-01T00:19:12.776Z,85.26
2018-12-01T00:21:44.707Z,85.43
2018-12-01T00:24:16.747Z,85.54
2018-12-01T00:26:48.564Z,85.62
2018-12-01T00:29:20.442Z,85.55
2018-12-01T00:31:52.381Z,85.56
2018-12-01T00:34:23.886Z,85.74
2018-12-01T00:36:55.739Z,85.98
2018-12-01T00:39:27.541Z,86.07
2018-12-01T00:41:59.191Z,85.87
2018-12-01T00:44:31.343Z,85.78
2018-12-01T00:47:02.810Z,85.94
2018-12-01T00:49:34.644Z,86.07
2018-12-01T00:52:06.575Z,86.00
2018-12-01T00:54:38.011Z,85.99
2018-12-01T00:57:09.411Z,86.12
2018-12-01T00:59:41.210Z,86.28
2018-12-01T01:02:29.843Z,86.41
2018-12-01T01:05:02.031Z,86.37
2018-12-01T01:07:34.850Z,86.45
2018-12-01T01:10:10.542Z,86.47
2018-12-01T01:12:42.310Z,86.53
2018-12-01T01:15:14.233Z,86.74
2018-12-01T01:17:45.568Z,86.85
2018-12-01T01:20:24.419Z,86.77
2018-12-01T01:22:55.834Z,86.79
2018-12-01T01:25:27.385Z,86.84
2018-12-01T01:27:58.895Z,86.94
2018-12-01T01:30:30.612Z,87.07
2018-12-01T01:33:27.784Z,87.12
2018-12-01T01:35:59.081Z,87.12
2018-12-01T01:38:33.644Z,86.97
2018-12-01T01:41:08.307Z,86.89
2018-12-01T01:43:40.822Z,86.81
2018-12-01T01:46:12.123Z,86.79
2018-12-01T01:48:43.648Z,86.87
2018-12-01T01:51:15.184Z,86.87
2018-12-01T01:53:47.276Z,86.90
2018-12-01T01:56:19.187Z,87.06
2018-12-01T01:58:51.123Z,87.08
2018-12-01T02:01:22.965Z,86.88
2018-12-01T02:03:56.057Z,86.81
2018-12-01T02:06:28.254Z,86.88
2018-12-01T02:08:59.569Z,86.73
2018-12-01T02:11:32.756Z,86.57
2018-12-01T02:14:04.576Z,86.48
2018-12-01T02:16:36.318Z,86.30
2018-12-01T02:19:07.687Z,86.22
2018-12-01T02:21:39.790Z,86.40
2018-12-01T02:24:11.241Z,86.59
2018-12-01T02:26:43.011Z,86.74
2018-12-01T02:29:14.749Z,87.15
2018-12-01T02:31:46.420Z,87.51
2018-12-01T02:34:19.625Z,87.85
2018-12-01T02:36:51.414Z,88.20
2018-12-01T02:39:23.107Z,88.48
2018-12-01T02:41:55.294Z,88.43
2018-12-01T02:45:23.620Z,88.28
2018-12-01T02:47:55.255Z,88.12
2018-12-01T02:50:29.959Z,88.05
2018-12-01T02:53:02.624Z,87.95
2018-12-01T02:55:34.377Z,87.96
2018-12-01T02:58:06.459Z,87.97
2018-12-01T03:00:38.770Z,88.06
2018-12-01T03:03:10.116Z,88.07
2018-12-01T03:05:41.593Z,88.04
2018-12-01T03:08:13.323Z,87.99
2018-12-01T03:10:46.552Z,87.96
2018-12-01T03:13:18.442Z,87.97
2018-12-01T03:15:49.863Z,88.16
2018-12-01T03:18:21.201Z,88.09
2018-12-01T03:20:53.438Z,88.06
2018-12-01T03:23:25.231Z,88.18
2018-12-01T03:25:58.835Z,88.62
2018-12-01T03:28:31.312Z,88.78
2018-12-01T03:31:03.749Z,88.94
2018-12-01T03:33:36.537Z,88.94
2018-12-01T03:36:07.898Z,88.94
2018-12-01T03:38:40.453Z,89.08
2018-12-01T03:41:11.836Z,89.21
2018-12-01T03:43:43.957Z,89.35
2018-12-01T03:46:16.123Z,89.38
2018-12-01T03:48:47.905Z,89.56
2018-12-01T03:51:19.316Z,89.65
2018-12-01T03:53:51.616Z,89.79
2018-12-01T03:56:25.189Z,89.82
2018-12-01T03:58:56.960Z,89.82
2018-12-01T04:01:28.827Z,89.81
2018-12-01T04:04:00.394Z,89.63
2018-12-01T04:06:31.802Z,89.56
2018-12-01T04:09:22.192Z,89.49
2018-12-01T04:11:54.292Z,89.70
2018-12-01T04:14:39.449Z,89.59
2018-12-01T04:17:11.803Z,89.75
2018-12-01T04:19:43.560Z,89.88
2018-12-01T04:22:14.958Z,90.06
2018-12-01T04:24:46.597Z,90.10
2018-12-01T04:27:19.399Z,90.21
2018-12-01T04:29:51.360Z,90.23
2018-12-01T04:32:24.379Z,90.22
2018-12-01T04:34:57.793Z,90.25
2018-12-01T04:37:29.915Z,90.25
2018-12-01T04:40:01.307Z,90.25
2018-12-01T04:42:34.613Z,90.24
2018-12-01T04:45:07.516Z,90.22
2018-12-01T04:47:40.250Z,90.20
2018-12-01T04:50:12.861Z,90.12
2018-12-01T04:52:44.726Z,90.08
2018-12-01T04:55:17.231Z,90.11
2018-12-01T04:57:48.609Z,90.12
2018-12-01T05:00:23.267Z,90.11
2018-12-01T05:02:57.236Z,90.13
2018-12-01T05:05:28.599Z,90.13
2018-12-01T05:08:00.616Z,90.13
2018-12-01T05:10:32.765Z,90.12
2018-12-01T05:13:04.062Z,90.16
2018-12-01T05:15:35.477Z,90.16
2018-12-01T05:18:07.299Z,90.17
2018-12-01T05:20:38.732Z,90.19
2018-12-01T05:23:10.843Z,90.15
2018-12-01T05:25:43.423Z,90.13
2018-12-01T05:28:14.730Z,90.08
2018-12-01T05:30:46.088Z,89.99
2018-12-01T05:33:17.971Z,89.94
2018-12-01T05:35:49.829Z,89.87
2018-12-01T05:38:21.444Z,89.84
2018-12-01T05:40:53.499Z,89.74
2018-12-01T05:43:25.379Z,89.66
2018-12-01T05:45:56.716Z,89.62
2018-12-01T05:48:28.738Z,89.60
2018-12-01T05:51:04.137Z,89.61
2018-12-01T05:53:35.501Z,89.59
2018-12-01T05:56:07.664Z,89.55
2018-12-01T05:58:39.817Z,89.53
2018-12-01T06:01:11.316Z,89.50
2018-12-01T06:03:43.498Z,89.47
2018-12-01T06:06:15.175Z,89.44
2018-12-01T06:08:47.048Z,89.42
2018-12-01T06:11:19.346Z,89.39
2018-12-01T06:13:51.191Z,89.32
2018-12-01T06:16:23.712Z,89.28
2018-12-01T06:18:55.280Z,89.22
2018-12-01T06:21:27.382Z,89.22
2018-12-01T06:24:01.719Z,89.16
2018-12-01T06:26:33.352Z,89.15
2018-12-01T06:29:05.980Z,89.12
2018-12-01T06:31:37.363Z,89.12
2018-12-01T06:34:08.570Z,89.09
2018-12-01T06:36:39.870Z,89.07
2018-12-01T06:39:13.090Z,88.98
2018-12-01T06:41:45.134Z,88.94
2018-12-01T06:44:17.020Z,88.89
2018-12-01T06:46:48.409Z,88.82
2018-12-01T06:49:19.820Z,88.77
2018-12-01T06:51:52.194Z,88.68
2018-12-01T06:54:25.000Z,88.64
2018-12-01T06:56:57.922Z,88.59
2018-12-01T06:59:29.295Z,88.54
2018-12-01T07:02:01.099Z,88.47
2018-12-01T07:04:34.087Z,88.38
2018-12-01T07:07:06.418Z,88.24
2018-12-01T07:09:37.824Z,88.16
2018-12-01T07:12:15.082Z,88.07
2018-12-01T07:14:47.570Z,88.00
2018-12-01T07:17:20.181Z,87.95
2018-12-01T07:19:51.785Z,87.95
2018-12-01T07:22:25.476Z,87.99
2018-12-01T07:24:57.166Z,88.02
2018-12-01T07:27:29.078Z,88.03
2018-12-01T07:30:00.483Z,88.06
2018-12-01T07:32:32.799Z,88.07
2018-12-01T07:35:05.280Z,88.08
2018-12-01T07:37:37.542Z,88.04
2018-12-01T07:40:13.799Z,87.99
2018-12-01T07:42:45.074Z,87.92
2018-12-01T07:45:17.412Z,87.92
2018-12-01T07:47:49.200Z,87.85
2018-12-01T07:50:24.296Z,87.77
2018-12-01T07:52:57.527Z,87.74
2018-12-01T07:55:29.446Z,87.75
2018-12-01T07:58:00.845Z,87.72
2018-12-01T08:00:33.013Z,87.69
2018-12-01T08:03:06.663Z,87.66
2018-12-01T08:05:38.663Z,87.63
2018-12-01T08:08:10.796Z,87.64
2018-12-01T08:10:43.747Z,87.59
2018-12-01T08:13:15.956Z,87.51
2018-12-01T08:15:47.379Z,87.36
2018-12-01T08:18:19.095Z,87.25
2018-12-01T08:20:52.570Z,87.10
2018-12-01T08:23:24.546Z,87.02
2018-12-01T08:25:56.076Z,86.85
2018-12-01T08:28:28.137Z,86.65
2018-12-01T08:31:01.083Z,86.50
2018-12-01T08:33:34.170Z,86.40
2018-12-01T08:36:07.521Z,86.23
2018-12-01T08:38:41.229Z,86.05
2018-12-01T08:41:31.699Z,85.97
2018-12-01T08:44:04.012Z,85.74
2018-12-01T08:46:35.585Z,85.43
2018-12-01T08:49:07.462Z,85.23
2018-12-01T08:51:41.554Z,85.23
2018-12-01T08:54:13.423Z,85.16
2018-12-01T08:56:45.669Z,85.21
2018-12-01T08:59:17.698Z,85.10
2018-12-01T09:01:49.733Z,85.01
2018-12-01T09:04:22.559Z,84.95
2018-12-01T09:06:54.876Z,84.87
2018-12-01T09:09:28.037Z,84.76
2018-12-01T09:11:59.555Z,84.58
2018-12-01T09:14:31.296Z,84.46
2018-12-01T09:17:03.314Z,84.36
2018-12-01T09:22:27.541Z,84.31
2018-12-01T09:25:04.608Z,84.37
2018-12-01T09:27:46.624Z,84.56
2018-12-01T09:30:40.860Z,84.48
2018-12-01T09:33:13.267Z,84.26
2018-12-01T09:35:44.721Z,84.31
2018-12-01T09:38:16.111Z,84.27
2018-12-01T09:40:48.718Z,84.19
2018-12-01T09:43:20.198Z,84.07
2018-12-01T09:45:51.606Z,84.09
2018-12-01T09:48:23.998Z,84.08
2018-12-01T09:50:56.069Z,83.99
2018-12-01T09:53:28.376Z,83.87
2018-12-01T09:56:00.579Z,83.74
2018-12-01T09:58:32.648Z,83.75
2018-12-01T10:01:04.073Z,83.68
2018-12-01T10:03:35.925Z,83.54
2018-12-01T10:06:07.369Z,83.49
2018-12-01T10:08:39.150Z,83.54
2018-12-01T10:11:12.013Z,83.45
2018-12-01T10:13:48.031Z,83.32
2018-12-01T10:16:19.667Z,83.07
2018-12-01T10:18:56.380Z,82.93
2018-12-01T10:21:23.584Z,82.88
2018-12-01T10:23:55.347Z,82.40
2018-12-01T10:26:28.049Z,82.01
2018-12-01T10:29:00.293Z,81.97
2018-12-01T10:31:32.129Z,81.85
2018-12-01T10:34:03.764Z,82.16
2018-12-01T10:36:35.462Z,82.09
2018-12-01T10:39:10.133Z,82.08
2018-12-01T10:44:25.515Z,82.36
2018-12-01T10:46:57.248Z,82.36
2018-12-01T10:49:28.598Z,82.23
2018-12-01T10:52:00.872Z,82.13
2018-12-01T10:54:33.436Z,82.28
2018-12-01T10:57:05.053Z,81.95
2018-12-01T10:59:36.797Z,81.74
2018-12-01T11:02:42.766Z,81.83
2018-12-01T11:05:14.436Z,81.71
2018-12-01T11:07:46.141Z,81.69
2018-12-01T11:10:18.279Z,81.61
2018-12-01T11:12:50.409Z,81.56
2018-12-01T11:15:22.443Z,81.66
2018-12-01T11:17:53.757Z,81.29
2018-12-01T11:20:25.491Z,81.21
2018-12-01T11:22:58.235Z,80.90
2018-12-01T11:25:30.194Z,80.67
2018-12-01T11:28:02.066Z,80.64
2018-12-01T11:30:33.820Z,80.38
2018-12-01T11:33:05.668Z,80.20
2018-12-01T11:35:37.064Z,79.90
2018-12-01T11:38:09.083Z,79.76
2018-12-01T11:40:41.174Z,79.63
2018-12-01T11:43:14.411Z,79.77
2018-12-01T11:45:46.039Z,79.92
2018-12-01T11:48:18.177Z,80.40
2018-12-01T11:50:49.525Z,80.22
2018-12-01T11:53:21.035Z,80.10
2018-12-01T11:55:53.973Z,79.82
2018-12-01T11:58:25.478Z,79.65
2018-12-01T12:00:56.769Z,79.67
2018-12-01T12:03:28.874Z,79.48
2018-12-01T12:06:00.612Z,79.53
2018-12-01T12:08:32.090Z,79.32
2018-12-01T12:11:03.655Z,79.27
2018-12-01T12:13:35.782Z,79.57
2018-12-01T12:16:07.665Z,79.42
2018-12-01T12:18:39.150Z,79.38
2018-12-01T12:21:11.209Z,79.45
2018-12-01T12:23:44.451Z,79.31
2018-12-01T12:26:16.062Z,79.14
2018-12-01T12:28:48.658Z,79.08
2018-12-01T12:31:24.565Z,79.47
2018-12-01T12:33:57.255Z,79.03
2018-12-01T12:36:31.185Z,78.64
2018-12-01T12:39:03.052Z,78.73
2018-12-01T12:41:35.329Z,78.25
2018-12-01T12:44:08.386Z,78.40
2018-12-01T12:46:40.031Z,78.27
2018-12-01T12:49:11.277Z,78.03
2018-12-01T12:51:43.790Z,77.96
2018-12-01T12:54:33.489Z,78.05
2018-12-01T12:57:05.600Z,77.99
2018-12-01T12:59:37.655Z,78.01
2018-12-01T13:02:09.284Z,78.11
2018-12-01T13:04:40.631Z,78.20
2018-12-01T13:07:11.988Z,77.94
2018-12-01T13:09:43.279Z,78.16
2018-12-01T13:12:15.091Z,78.20
2018-12-01T13:14:46.381Z,78.13
2018-12-01T13:17:18.380Z,78.27
2018-12-01T13:19:50.546Z,78.16
2018-12-01T13:22:22.650Z,78.53
2018-12-01T13:24:54.105Z,78.57
2018-12-01T13:27:25.551Z,78.61
2018-12-01T13:29:58.600Z,78.14
2018-12-01T13:32:31.126Z,77.86
2018-12-01T13:35:02.475Z,77.54
2018-12-01T13:37:34.104Z,77.26
2018-12-01T13:40:08.430Z,77.23
2018-12-01T13:42:39.918Z,77.04
2018-12-01T13:45:18.425Z,77.16
2018-12-01T13:47:51.060Z,77.01
2018-12-01T13:50:23.497Z,76.77
2018-12-01T13:53:02.151Z,76.69
2018-12-01T13:55:34.419Z,76.61
2018-12-01T13:58:06.421Z,76.73
2018-12-01T14:00:37.941Z,76.85
2018-12-01T14:03:10.623Z,76.65
2018-12-01T14:05:43.204Z,76.69
2018-12-01T14:08:14.574Z,76.68
2018-12-01T14:10:52.775Z,76.74
2018-12-01T14:13:24.428Z,76.89
2018-12-01T14:21:38.946Z,76.97
2018-12-01T14:24:10.656Z,76.87
2018-12-01T14:26:42.021Z,76.66
2018-12-01T14:29:13.562Z,76.79
2018-12-01T14:31:46.107Z,76.58
2018-12-01T14:34:18.027Z,76.63
2018-12-01T14:36:49.480Z,76.22
2018-12-01T14:39:21.379Z,76.34
2018-12-01T14:41:53.338Z,76.45
2018-12-01T14:44:24.761Z,76.56
2018-12-01T14:46:56.107Z,76.69
2018-12-01T14:49:30.713Z,76.65
2018-12-01T14:52:05.052Z,76.65
2018-12-01T14:54:37.761Z,76.59
2018-12-01T14:57:09.343Z,76.83
2018-12-01T14:59:40.597Z,76.91
2018-12-01T15:02:12.022Z,77.15
2018-12-01T15:04:44.233Z,77.33
2018-12-01T15:07:16.889Z,77.63
2018-12-01T15:09:48.674Z,77.90
2018-12-01T15:12:20.107Z,78.00
2018-12-01T15:14:52.468Z,78.08
2018-12-01T15:17:24.137Z,77.39
2018-12-01T15:19:55.556Z,76.62
2018-12-01T15:22:38.081Z,76.49
2018-12-01T15:25:22.639Z,76.35
2018-12-01T15:27:54.123Z,76.28
2018-12-01T15:30:29.190Z,76.03
2018-12-01T15:33:20.223Z,76.00
2018-12-01T15:35:51.588Z,75.88
2018-12-01T15:38:23.543Z,75.73
2018-12-01T15:40:55.165Z,75.57
2018-12-01T15:43:28.500Z,75.58
2018-12-01T15:46:00.019Z,75.44
2018-12-01T15:48:31.703Z,75.37
2018-12-01T15:51:03.441Z,75.38
2018-12-01T15:53:35.300Z,75.65
2018-12-01T15:56:06.664Z,76.07
2018-12-01T15:58:38.246Z,76.37
2018-12-01T16:01:10.117Z,76.54
2018-12-01T16:03:41.615Z,76.77
2018-12-01T16:06:12.957Z,76.98
2018-12-01T16:08:44.327Z,77.25
2018-12-01T16:11:15.794Z,77.63
2018-12-01T16:13:47.555Z,77.99
2018-12-01T16:16:21.809Z,78.21
2018-12-01T16:18:54.365Z,78.36
2018-12-01T16:21:25.937Z,78.47
2018-12-01T16:23:57.429Z,78.45
2018-12-01T16:26:29.621Z,78.19
2018-12-01T16:29:01.069Z,78.22
2018-12-01T16:31:33.030Z,78.31
2018-12-01T16:34:04.327Z,78.43
2018-12-01T16:36:35.852Z,78.49
2018-12-01T16:39:10.379Z,78.66
2018-12-01T16:41:41.813Z,78.73
2018-12-01T16:44:14.188Z,78.63
2018-12-01T16:46:46.954Z,78.66
2018-12-01T16:49:18.579Z,78.65
2018-12-01T16:51:49.988Z,78.73
2018-12-01T16:54:21.763Z,78.82
2018-12-01T16:56:53.910Z,79.08
2018-12-01T16:59:26.129Z,79.31
2018-12-01T17:01:57.773Z,79.37
2018-12-01T17:04:30.824Z,79.34
2018-12-01T17:07:02.445Z,79.32
2018-12-01T17:09:34.138Z,79.64
2018-12-01T17:12:06.544Z,79.37
2018-12-01T17:14:38.206Z,79.28
2018-12-01T17:17:09.896Z,79.26
2018-12-01T17:19:42.209Z,79.30
2018-12-01T17:22:13.982Z,79.10
2018-12-01T17:24:45.617Z,78.94
2018-12-01T17:27:17.338Z,78.86
2018-12-01T17:29:49.025Z,78.84
2018-12-01T17:32:20.910Z,78.75
2018-12-01T17:34:52.675Z,78.65
2018-12-01T17:37:25.518Z,78.72
2018-12-01T17:39:59.682Z,78.63
2018-12-01T17:42:30.179Z,78.33
2018-12-01T17:45:01.857Z,78.16
2018-12-01T17:47:34.119Z,78.26
2018-12-01T17:50:08.939Z,78.12
2018-12-01T17:52:40.909Z,77.82
2018-12-01T17:55:13.688Z,77.68
2018-12-01T17:57:46.728Z,77.63
2018-12-01T18:00:26.258Z,77.77
2018-12-01T18:02:58.854Z,77.46
2018-12-01T18:05:37.887Z,78.18
2018-12-01T18:08:14.034Z,77.38
2018-12-01T18:10:46.526Z,77.13
2018-12-01T18:13:19.087Z,77.27
2018-12-01T18:15:50.422Z,77.41
2018-12-01T18:18:22.549Z,77.29
2018-12-01T18:20:53.994Z,77.27
2018-12-01T18:23:25.394Z,77.46
2018-12-01T18:25:57.121Z,77.58
2018-12-01T18:28:33.855Z,77.73
2018-12-01T18:31:08.168Z,77.61
2018-12-01T18:33:44.318Z,77.39
2018-12-01T18:36:16.878Z,77.35
2018-12-01T18:38:50.613Z,77.45
2018-12-01T18:41:23.071Z,77.50
2018-12-01T18:43:55.596Z,77.53
2018-12-01T18:46:27.037Z,77.48
2018-12-01T18:48:58.374Z,77.52
2018-12-01T18:51:31.274Z,77.52
2018-12-01T18:54:02.845Z,77.42
2018-12-01T18:56:34.957Z,77.54
2018-12-01T18:59:06.585Z,77.75
2018-12-01T19:01:37.948Z,77.71
2018-12-01T19:04:09.244Z,77.75
2018-12-01T19:06:40.604Z,77.72
2018-12-01T19:09:12.722Z,77.82
2018-12-01T19:11:44.391Z,77.69
2018-12-01T19:14:15.709Z,77.51
2018-12-01T19:16:47.989Z,77.65
2018-12-01T19:19:19.289Z,77.57
2018-12-01T19:21:50.744Z,77.60
2018-12-01T19:24:22.841Z,77.66
2018-12-01T19:26:54.576Z,77.35
2018-12-01T19:29:25.867Z,77.54
2018-12-01T19:31:57.219Z,77.44
2018-12-01T19:34:28.677Z,77.26
2018-12-01T19:37:00.027Z,77.17
2018-12-01T19:39:32.781Z,77.38
2018-12-01T19:42:05.420Z,77.25
2018-12-01T19:44:37.039Z,77.41
2018-12-01T19:47:08.707Z,77.41
2018-12-01T19:49:40.676Z,77.11
2018-12-01T19:52:12.932Z,77.07
2018-12-01T19:54:44.266Z,77.02
2018-12-01T19:57:15.954Z,77.03
2018-12-01T19:59:47.946Z,76.92
2018-12-01T20:02:20.048Z,77.01
2018-12-01T20:04:52.153Z,77.22
2018-12-01T20:07:23.812Z,77.33
2018-12-01T20:09:55.662Z,77.27
2018-12-01T20:12:27.233Z,77.78
2018-12-01T20:14:58.823Z,77.88
2018-12-01T20:17:30.551Z,78.08
2018-12-01T20:20:02.206Z,78.09
2018-12-01T20:22:33.632Z,78.25
2018-12-01T20:25:05.078Z,78.28
2018-12-01T20:27:36.593Z,78.42
2018-12-01T20:30:20.711Z,78.89
2018-12-01T20:32:52.430Z,79.18
2018-12-01T20:35:28.808Z,79.53
2018-12-01T20:38:06.019Z,79.95
2018-12-01T20:40:38.120Z,80.46
2018-12-01T20:43:11.023Z,80.83
2018-12-01T20:45:43.487Z,81.09
2018-12-01T20:48:14.968Z,81.16
2018-12-01T20:50:46.386Z,81.17
2018-12-01T20:53:18.551Z,81.57
2018-12-01T20:55:58.614Z,81.84
2018-12-01T20:58:33.649Z,81.75
2018-12-01T21:01:04.969Z,81.56
2018-12-01T21:03:36.994Z,81.64
2018-12-01T21:06:11.668Z,81.73
2018-12-01T21:08:46.188Z,81.67
2018-12-01T21:11:19.544Z,81.70
2018-12-01T21:13:50.921Z,81.79
2018-12-01T21:16:23.046Z,81.56
2018-12-01T21:18:54.492Z,81.67
2018-12-01T21:21:26.260Z,81.46
2018-12-01T21:23:57.938Z,81.64
2018-12-01T21:26:29.609Z,81.55
2018-12-01T21:29:01.214Z,81.44
2018-12-01T21:31:33.263Z,81.54
2018-12-01T21:34:04.962Z,81.60
2018-12-01T21:36:36.441Z,81.46
2018-12-01T21:39:09.667Z,81.33
2018-12-01T21:41:41.306Z,81.44
2018-12-01T21:44:13.153Z,81.31
2018-12-01T21:46:44.541Z,81.39
2018-12-01T21:49:16.526Z,81.19
2018-12-01T21:51:48.474Z,81.17
2018-12-01T21:54:23.283Z,81.28
2018-12-01T21:56:55.875Z,81.49
2018-12-01T21:59:27.558Z,81.76
2018-12-01T22:01:58.882Z,81.60
2018-12-01T22:04:30.870Z,81.26
2018-12-01T22:07:02.275Z,81.36
2018-12-01T22:09:35.494Z,81.41
2018-12-01T22:12:07.036Z,81.47
2018-12-01T22:14:38.952Z,81.46
2018-12-01T22:17:10.356Z,81.51
2018-12-01T22:19:42.703Z,81.39
2018-12-01T22:22:15.466Z,81.35
2018-12-01T22:24:47.355Z,81.11
2018-12-01T22:27:19.056Z,80.98
2018-12-01T22:29:50.749Z,80.97
2018-12-01T22:32:23.072Z,81.08
2018-12-01T22:34:54.395Z,81.16
2018-12-01T22:37:25.753Z,81.44
2018-12-01T22:39:57.036Z,81.60
2018-12-01T22:42:28.819Z,81.92
2018-12-01T22:45:00.927Z,81.94
2018-12-01T22:47:32.315Z,82.02
2018-12-01T22:50:04.093Z,81.85
2018-12-01T22:52:35.413Z,81.67
2018-12-01T22:55:08.885Z,81.42
2018-12-01T22:57:40.657Z,81.35
2018-12-01T23:00:40.892Z,81.21
2018-12-01T23:03:13.347Z,81.38
2018-12-01T23:05:44.836Z,81.49
2018-12-01T23:08:17.559Z,81.76
2018-12-01T23:10:49.552Z,81.84
2018-12-01T23:13:21.131Z,81.76
2018-12-01T23:15:52.603Z,81.74
2018-12-01T23:18:27.558Z,81.75
2018-12-01T23:20:58.819Z,81.66
2018-12-01T23:23:30.579Z,81.46
2018-12-01T23:26:02.210Z,81.32
2018-12-01T23:28:34.147Z,81.31
2018-12-01T23:31:05.918Z,81.28
2018-12-01T23:33:37.225Z,81.36
2018-12-01T23:36:08.568Z,81.27
2018-12-01T23:38:39.887Z,81.17
2018-12-01T23:41:12.338Z,80.91
2018-12-01T23:43:45.341Z,80.84
2018-12-01T23:46:16.725Z,80.82
2018-12-01T23:48:48.560Z,80.78
2018-12-01T23:51:20.575Z,80.73
2018-12-01T23:53:52.478Z,80.79
2018-12-01T23:56:23.802Z,80.62
2018-12-01T23:58:56.219Z,80.77
